Steinkjer, Norge

04:49:CEST den 24. juli 2016 (GMT +0200)
Helgesmark/Byafossen | | Change Station

H.o.h 328 ft 64.03 °N, 11.55 °E | Updated 18 seconds ago

Light Rain
Lett regn
59.7 °F
Feels Like 59.7 °F
N
0.0
Vind Variabel Vind from NV
Gusts 0.0 mph

I dag
High -- | Low -- °F
--% Chance of Precip.
I går
High -- | Low -- °F
Precip. -- tommer
Lufttrykk 30.12 tommer
Sikt 6.2 eng. mil
Skyet Few 1900 ft
Sporadisk skyet 2000 ft
For det meste skyet 3200 ft
Duggpunkt 57 °F
Fuktighet 90%
Regn 0.00 tommer
Snødybde Not available.
3:57 AM 10:41 PM
Trekvart minkende, 80% visible
METAR ENVA 240150Z VRB01KT 9999 -RA FEW019 SCT020 BKN032 16/15 Q1020 RMK WIND 670FT VRB01KT
Lufttrykk 30.12 tommer
Sikt 6.2 eng. mil
Skyet Few 1900 ft
Sporadisk skyet 2000 ft
For det meste skyet 3200 ft
Duggpunkt 57 °F
Fuktighet 90%
Regn 0.00 tommer
Snødybde Not available.
3:57 AM 10:41 PM
Trekvart minkende, 80% visible
METAR ENVA 240150Z VRB01KT 9999 -RA FEW019 SCT020 BKN032 16/15 Q1020 RMK WIND 670FT VRB01KT

10-Day Weather Forecast

×

Almanac

Astronomi

Jul. 24, 2016 Oppgang Nedgang
Virkelig tid
Tussmørke
Nautisk skumring
Astronomisk skumring
Månen
Lengde av synlig lys
Dagens lengde
Tomorrow will be .
, % of the Moon is Illuminated

Dagens maks og min

Country Highs Country Lows

Community

WunderPhotos

Upload Photos

1,927,004 photos uploaded!

WunderBlog® & News

Nearby

Luftkvalitet

  Luftkvalitet AQ Indeks Forurensing
Not available.

Snødybde

Stasjon Depth Høyde over havet

Earthquake Activity

By Distance Mag. Time & Date
Minimum magnitude displayed is 2.5.

Coastal Water Temperatures

Sted Temperatur

Stations

Nearby Weather Stations

Stasjonens lokasjon Temp. Nedkjølingseffekt Duggpunkt Fuktighet Vind Precip. H.o.h Oppdatert Type